createdAt,value
2023-02-09T00:01:41.026Z,22.52
2023-02-09T00:04:10.900Z,26.92
2023-02-09T00:06:39.695Z,24.58
2023-02-09T00:09:09.055Z,25.35
2023-02-09T00:11:55.682Z,24.65
2023-02-09T00:14:24.404Z,23.80
2023-02-09T00:16:54.866Z,23.75
2023-02-09T00:19:27.173Z,22.52
2023-02-09T00:21:55.551Z,20.50
2023-02-09T00:24:27.009Z,21.00
2023-02-09T00:26:55.498Z,19.90
2023-02-09T00:29:24.568Z,20.30
2023-02-09T00:31:53.454Z,19.42
2023-02-09T00:34:22.110Z,20.73
2023-02-09T00:36:51.609Z,18.83
2023-02-09T00:39:20.497Z,21.85
2023-02-09T00:42:07.486Z,22.23
2023-02-09T00:44:44.655Z,22.55
2023-02-09T00:47:13.245Z,21.75
2023-02-09T00:49:44.098Z,19.55
2023-02-09T00:52:15.345Z,20.02
2023-02-09T00:54:44.165Z,20.58
2023-02-09T00:57:13.425Z,20.00
2023-02-09T00:59:43.702Z,18.83
2023-02-09T01:02:11.716Z,19.02
2023-02-09T01:04:40.357Z,18.30
2023-02-09T01:07:09.232Z,18.85
2023-02-09T01:09:37.889Z,17.25
2023-02-09T01:12:08.363Z,18.92
2023-02-09T01:14:44.809Z,24.80
2023-02-09T01:17:14.381Z,26.25
2023-02-09T01:19:43.980Z,22.48
2023-02-09T01:22:12.843Z,24.58
2023-02-09T01:24:41.047Z,23.60
2023-02-09T01:27:25.686Z,23.40
2023-02-09T01:29:52.960Z,22.85
2023-02-09T01:32:31.906Z,22.60
2023-02-09T01:34:59.142Z,20.67
2023-02-09T01:37:28.308Z,18.77
2023-02-09T01:39:55.623Z,18.15
2023-02-09T01:42:23.804Z,16.35
2023-02-09T01:45:06.650Z,14.90
2023-02-09T01:47:45.795Z,13.10
2023-02-09T01:50:14.324Z,11.90
2023-02-09T01:52:44.716Z,9.07
2023-02-09T01:55:15.743Z,9.20
2023-02-09T01:57:51.692Z,8.88
2023-02-09T02:00:23.518Z,8.23
2023-02-09T02:02:56.713Z,7.55
2023-02-09T02:05:25.334Z,7.18
2023-02-09T02:08:09.156Z,6.85
2023-02-09T02:10:36.615Z,8.30
2023-02-09T02:13:04.020Z,8.10
2023-02-09T02:15:45.526Z,8.27
2023-02-09T02:18:17.816Z,9.32
2023-02-09T02:21:01.082Z,10.00
2023-02-09T02:24:08.785Z,10.07
2023-02-09T02:26:43.142Z,10.88
2023-02-09T02:29:31.749Z,11.43
2023-02-09T02:32:07.982Z,12.80
2023-02-09T02:34:51.278Z,13.80
2023-02-09T02:37:56.682Z,14.55
2023-02-09T02:40:38.347Z,15.00
2023-02-09T02:43:30.623Z,15.55
2023-02-09T02:46:11.721Z,14.75
2023-02-09T02:48:45.032Z,15.02
2023-02-09T02:51:23.952Z,15.57
2023-02-09T02:53:57.946Z,15.95
2023-02-09T02:56:30.107Z,14.48
2023-02-09T02:59:02.327Z,14.57
2023-02-09T03:01:38.302Z,12.68
2023-02-09T03:04:08.154Z,11.77
2023-02-09T03:06:37.778Z,10.18
2023-02-09T03:09:05.463Z,11.05
2023-02-09T03:11:40.212Z,10.43
2023-02-09T03:14:35.405Z,10.98
2023-02-09T03:17:08.065Z,9.80
2023-02-09T03:19:58.280Z,10.77
2023-02-09T03:22:42.886Z,9.77
2023-02-09T03:25:21.029Z,10.35
2023-02-09T03:28:02.580Z,10.13
2023-02-09T03:30:32.608Z,9.40
2023-02-09T03:33:00.759Z,11.73
2023-02-09T03:35:35.673Z,10.77
2023-02-09T03:38:08.088Z,10.15
2023-02-09T03:40:35.766Z,10.45
2023-02-09T03:43:03.000Z,11.40
2023-02-09T03:45:30.215Z,10.70
2023-02-09T03:47:57.393Z,10.60
2023-02-09T03:50:24.999Z,9.95
2023-02-09T03:52:52.490Z,10.38
2023-02-09T03:55:19.704Z,9.27
2023-02-09T03:57:47.045Z,9.23
2023-02-09T04:00:15.387Z,9.02
2023-02-09T04:02:43.942Z,8.60
2023-02-09T04:05:12.588Z,8.18
2023-02-09T04:07:40.345Z,7.78
2023-02-09T04:10:08.019Z,8.27
2023-02-09T04:12:35.400Z,8.88
2023-02-09T04:15:03.120Z,9.77
2023-02-09T04:17:30.370Z,9.75
2023-02-09T04:19:57.692Z,10.50
2023-02-09T04:22:25.244Z,11.30
2023-02-09T04:24:52.490Z,9.63
2023-02-09T04:27:20.169Z,10.30
2023-02-09T04:29:47.340Z,9.55
2023-02-09T04:32:14.712Z,9.85
2023-02-09T04:34:43.485Z,9.05
2023-02-09T04:37:10.721Z,9.52
2023-02-09T04:39:38.075Z,9.98
2023-02-09T04:42:05.327Z,8.95
2023-02-09T04:44:32.592Z,8.90
2023-02-09T04:46:59.829Z,9.05
2023-02-09T04:49:27.202Z,9.38
2023-02-09T04:51:57.222Z,10.15
2023-02-09T04:54:24.511Z,9.52
2023-02-09T04:57:12.348Z,9.98
2023-02-09T04:59:42.404Z,9.70
2023-02-09T05:02:10.172Z,10.07
2023-02-09T05:04:37.595Z,10.20
2023-02-09T05:07:05.118Z,10.02
2023-02-09T05:09:32.416Z,10.50
2023-02-09T05:11:59.508Z,10.60
2023-02-09T05:14:26.849Z,11.23
2023-02-09T05:16:54.509Z,11.20
2023-02-09T05:19:21.804Z,11.88
2023-02-09T05:21:49.070Z,11.43
2023-02-09T05:24:16.462Z,11.93
2023-02-09T05:26:43.735Z,12.40
2023-02-09T05:29:10.965Z,12.93
2023-02-09T05:31:38.439Z,17.08
2023-02-09T05:34:05.886Z,13.32
2023-02-09T05:36:33.243Z,12.80
2023-02-09T05:39:00.579Z,19.50
2023-02-09T05:41:46.817Z,28.25
2023-02-09T05:44:13.939Z,35.63
2023-02-09T05:46:41.213Z,32.28
2023-02-09T05:49:08.490Z,22.75
2023-02-09T05:51:35.708Z,17.23
2023-02-09T05:54:03.436Z,16.63
2023-02-09T05:56:32.024Z,14.10
2023-02-09T05:59:10.709Z,13.93
2023-02-09T06:01:38.262Z,13.30
2023-02-09T06:04:06.719Z,12.10
2023-02-09T06:06:34.150Z,12.52
2023-02-09T06:09:02.040Z,13.20
2023-02-09T06:11:29.268Z,13.65
2023-02-09T06:13:57.533Z,13.80
2023-02-09T06:16:25.154Z,15.15
2023-02-09T06:18:52.340Z,14.07
2023-02-09T06:21:19.793Z,14.82
2023-02-09T06:23:47.078Z,14.80
2023-02-09T06:26:17.653Z,15.50
2023-02-09T06:28:46.078Z,16.33
2023-02-09T06:31:13.630Z,16.45
2023-02-09T06:33:42.055Z,17.52
2023-02-09T06:36:10.348Z,22.52
2023-02-09T06:38:38.679Z,21.33
2023-02-09T06:41:06.245Z,20.55
2023-02-09T06:43:34.069Z,17.67
2023-02-09T06:46:12.705Z,15.80
2023-02-09T06:48:40.611Z,14.82
2023-02-09T06:51:14.076Z,15.65
2023-02-09T06:56:11.167Z,18.85
2023-02-09T06:58:39.059Z,23.60
2023-02-09T07:01:09.361Z,23.00
2023-02-09T07:03:37.114Z,18.90
2023-02-09T07:06:14.076Z,19.30
2023-02-09T07:08:41.768Z,22.27
2023-02-09T07:11:13.335Z,21.90
2023-02-09T07:13:40.576Z,22.70
2023-02-09T07:16:10.052Z,21.02
2023-02-09T07:18:37.612Z,20.70
2023-02-09T07:21:10.449Z,22.55
2023-02-09T07:23:38.493Z,25.05
2023-02-09T07:26:07.470Z,30.98
2023-02-09T07:28:36.520Z,28.85
2023-02-09T07:31:10.002Z,22.45
2023-02-09T07:33:37.740Z,18.83
2023-02-09T07:36:07.195Z,16.75
2023-02-09T07:38:35.238Z,16.42
2023-02-09T07:41:04.906Z,16.42
2023-02-09T07:43:32.667Z,16.02
2023-02-09T07:46:10.632Z,15.68
2023-02-09T07:48:38.312Z,16.60
2023-02-09T07:51:06.516Z,16.55
2023-02-09T07:53:34.487Z,16.50
2023-02-09T07:56:01.807Z,17.38
2023-02-09T07:58:29.050Z,17.40
2023-02-09T08:00:58.175Z,16.83
2023-02-09T08:03:26.921Z,17.23
2023-02-09T08:06:03.358Z,18.20
2023-02-09T08:08:30.677Z,17.65
2023-02-09T08:11:00.283Z,17.58
2023-02-09T08:13:30.874Z,18.13
2023-02-09T08:16:05.119Z,17.23
2023-02-09T08:18:37.712Z,19.83
2023-02-09T08:21:08.926Z,20.40
2023-02-09T08:23:37.591Z,20.90
2023-02-09T08:26:12.227Z,22.63
2023-02-09T08:28:45.714Z,21.65
2023-02-09T08:31:18.462Z,22.13
2023-02-09T08:33:47.883Z,20.10
2023-02-09T08:36:16.364Z,20.98
2023-02-09T08:38:44.585Z,20.90
2023-02-09T08:41:14.926Z,20.75
2023-02-09T08:43:42.286Z,20.92
2023-02-09T08:46:13.057Z,19.63
2023-02-09T08:48:42.713Z,21.08
2023-02-09T08:51:12.493Z,18.65
2023-02-09T08:53:40.483Z,18.50
2023-02-09T08:56:07.727Z,17.75
2023-02-09T08:58:35.312Z,18.50
2023-02-09T09:01:03.097Z,18.80
2023-02-09T09:03:31.989Z,18.80
2023-02-09T09:06:00.960Z,18.85
2023-02-09T09:08:28.922Z,17.70
2023-02-09T09:10:56.549Z,17.60
2023-02-09T09:13:27.846Z,17.98
2023-02-09T09:15:55.734Z,17.63
2023-02-09T09:18:24.674Z,18.08
2023-02-09T09:20:53.139Z,16.10
2023-02-09T09:23:21.830Z,15.68
2023-02-09T09:25:49.318Z,15.35
2023-02-09T09:28:17.466Z,15.35
2023-02-09T09:30:44.921Z,16.20
2023-02-09T09:33:12.230Z,15.25
2023-02-09T09:35:39.666Z,15.10
2023-02-09T09:38:07.025Z,17.00
2023-02-09T09:40:38.377Z,16.83
2023-02-09T09:43:15.200Z,15.80
2023-02-09T09:45:43.638Z,16.13
2023-02-09T09:48:26.349Z,15.77
2023-02-09T09:50:59.017Z,15.98
2023-02-09T09:53:37.322Z,15.37
2023-02-09T09:56:11.120Z,14.98
2023-02-09T09:58:43.554Z,15.85
2023-02-09T10:01:16.274Z,15.18
2023-02-09T10:03:44.272Z,15.60
2023-02-09T10:06:20.749Z,16.20
2023-02-09T10:08:57.993Z,14.90
2023-02-09T10:11:34.397Z,14.98
2023-02-09T10:14:01.996Z,15.05
2023-02-09T10:16:35.009Z,15.13
2023-02-09T10:19:06.043Z,14.75
2023-02-09T10:21:36.465Z,15.10
2023-02-09T10:24:23.208Z,15.18
2023-02-09T10:27:15.823Z,15.50
2023-02-09T10:29:43.173Z,14.82
2023-02-09T10:32:22.624Z,14.73
2023-02-09T10:34:58.209Z,15.23
2023-02-09T10:37:39.153Z,13.30
2023-02-09T10:40:33.637Z,12.60
2023-02-09T10:43:06.051Z,11.90
2023-02-09T10:45:45.033Z,11.25
2023-02-09T10:48:12.423Z,11.32
2023-02-09T10:50:52.035Z,11.40
2023-02-09T10:53:32.805Z,10.88
2023-02-09T10:56:08.046Z,9.45
2023-02-09T10:58:37.718Z,9.55
2023-02-09T11:01:24.907Z,10.15
2023-02-09T11:04:19.747Z,9.40
2023-02-09T11:06:50.201Z,10.52
2023-02-09T11:09:20.770Z,9.68
2023-02-09T11:11:48.035Z,10.02
2023-02-09T11:14:18.076Z,13.23
2023-02-09T11:17:17.638Z,10.35
2023-02-09T11:19:52.103Z,8.90
2023-02-09T11:22:28.958Z,9.35
2023-02-09T11:25:18.982Z,10.35
2023-02-09T11:27:49.013Z,8.57
2023-02-09T11:30:54.983Z,9.57
2023-02-09T11:34:00.455Z,9.30
2023-02-09T11:36:49.177Z,7.85
2023-02-09T11:39:30.232Z,7.38
2023-02-09T11:42:24.078Z,10.65
2023-02-09T11:45:08.664Z,9.85
2023-02-09T11:47:48.323Z,8.35
2023-02-09T11:50:27.263Z,7.85
2023-02-09T11:53:03.126Z,9.32
2023-02-09T11:55:39.655Z,9.10
2023-02-09T11:58:21.235Z,9.05
2023-02-09T12:01:14.407Z,9.02
2023-02-09T12:04:03.708Z,8.30
2023-02-09T12:06:41.338Z,9.40
2023-02-09T12:09:40.411Z,7.60
2023-02-09T12:12:22.833Z,7.30
2023-02-09T12:15:14.934Z,8.23
2023-02-09T12:17:46.998Z,7.57
2023-02-09T12:20:31.304Z,7.15
2023-02-09T12:23:02.967Z,6.75
2023-02-09T12:25:42.045Z,7.10
2023-02-09T12:28:09.421Z,7.20
2023-02-09T12:30:42.945Z,7.38
2023-02-09T12:36:09.604Z,5.53
2023-02-09T12:38:52.238Z,6.30
2023-02-09T12:41:29.162Z,5.63
2023-02-09T12:44:12.035Z,7.63
2023-02-09T12:46:48.234Z,7.57
2023-02-09T12:49:15.989Z,6.38
2023-02-09T12:51:55.016Z,5.47
2023-02-09T12:54:55.756Z,6.78
2023-02-09T12:57:23.128Z,5.82
2023-02-09T12:59:54.292Z,5.95
2023-02-09T13:02:38.433Z,5.65
2023-02-09T13:05:13.467Z,5.40
2023-02-09T13:07:53.796Z,5.70
2023-02-09T13:10:33.168Z,5.88
2023-02-09T13:13:08.034Z,5.55
2023-02-09T13:15:48.416Z,5.35
2023-02-09T13:18:41.720Z,4.97
2023-02-09T13:21:35.690Z,5.30
2023-02-09T13:26:59.108Z,5.95
2023-02-09T13:29:32.134Z,5.85
2023-02-09T13:32:11.352Z,7.35
2023-02-09T13:34:55.799Z,6.80
2023-02-09T13:37:22.946Z,6.97
2023-02-09T13:40:02.119Z,7.13
2023-02-09T13:42:35.756Z,8.05
2023-02-09T13:45:03.123Z,9.00
2023-02-09T13:47:30.605Z,8.80
2023-02-09T13:50:33.880Z,7.25
2023-02-09T13:53:11.688Z,6.43
2023-02-09T13:55:40.348Z,6.07
2023-02-09T13:58:14.978Z,5.35
2023-02-09T14:00:46.181Z,6.07
2023-02-09T14:03:26.487Z,5.78
2023-02-09T14:06:12.466Z,5.53
2023-02-09T14:08:41.976Z,5.10
2023-02-09T14:11:41.881Z,5.10
2023-02-09T14:14:57.759Z,6.05
2023-02-09T14:17:28.581Z,5.88
2023-02-09T14:19:57.823Z,7.38
2023-02-09T14:22:33.086Z,5.22
2023-02-09T14:25:01.306Z,4.97
2023-02-09T14:27:33.200Z,4.90
2023-02-09T14:30:01.625Z,4.63
2023-02-09T14:32:35.176Z,4.88
2023-02-09T14:35:29.233Z,4.90
2023-02-09T14:37:59.802Z,4.97
2023-02-09T14:40:32.172Z,5.20
2023-02-09T14:43:02.949Z,5.03
2023-02-09T14:45:37.986Z,4.80
2023-02-09T14:48:18.273Z,4.93
2023-02-09T14:50:45.993Z,5.00
2023-02-09T14:53:16.194Z,4.85
2023-02-09T14:55:44.901Z,5.15
2023-02-09T14:58:34.151Z,4.85
2023-02-09T15:01:03.035Z,5.40
2023-02-09T15:03:36.609Z,4.68
2023-02-09T15:06:06.165Z,4.72
2023-02-09T15:08:37.958Z,5.43
2023-02-09T15:11:28.042Z,5.03
2023-02-09T15:14:04.199Z,4.88
2023-02-09T15:16:32.169Z,4.40
2023-02-09T15:18:59.486Z,4.53
2023-02-09T15:21:27.281Z,4.40
2023-02-09T15:23:54.767Z,4.40
2023-02-09T15:26:27.011Z,4.35
2023-02-09T15:28:54.583Z,4.05
2023-02-09T15:31:22.384Z,5.97
2023-02-09T15:33:51.038Z,4.20
2023-02-09T15:36:20.001Z,4.15
2023-02-09T15:38:47.769Z,4.05
2023-02-09T15:41:35.941Z,4.40
2023-02-09T15:44:33.078Z,4.57
2023-02-09T15:47:18.637Z,5.18
2023-02-09T15:49:46.406Z,4.97
2023-02-09T15:52:16.265Z,6.85
2023-02-09T15:54:44.366Z,7.03
2023-02-09T15:57:14.193Z,5.10
2023-02-09T15:59:42.776Z,5.88
2023-02-09T16:02:15.812Z,6.10
2023-02-09T16:04:43.500Z,7.43
2023-02-09T16:07:14.380Z,5.25
2023-02-09T16:09:43.769Z,4.53
2023-02-09T16:12:16.902Z,5.18
2023-02-09T16:14:44.146Z,4.70
2023-02-09T16:17:11.254Z,4.88
2023-02-09T16:19:40.088Z,5.20
2023-02-09T16:22:07.890Z,5.80
2023-02-09T16:24:47.883Z,5.47
2023-02-09T16:27:23.753Z,5.93
2023-02-09T16:29:51.461Z,6.00
2023-02-09T16:32:22.436Z,5.47
2023-02-09T16:34:50.586Z,5.32
2023-02-09T16:37:32.575Z,5.50
2023-02-09T16:40:02.120Z,5.40
2023-02-09T16:42:30.083Z,6.38
2023-02-09T16:44:57.639Z,6.20
2023-02-09T16:47:27.441Z,7.30
2023-02-09T16:50:01.990Z,7.05
2023-02-09T16:52:30.798Z,6.60
2023-02-09T16:55:01.042Z,5.88
2023-02-09T16:57:29.385Z,6.05
2023-02-09T16:59:56.965Z,7.18
2023-02-09T17:02:39.204Z,6.28
2023-02-09T17:05:25.606Z,9.50
2023-02-09T17:08:00.181Z,7.60
2023-02-09T17:10:34.044Z,7.45
2023-02-09T17:13:02.749Z,6.72
2023-02-09T17:15:32.450Z,6.35
2023-02-09T17:18:04.470Z,6.25
2023-02-09T17:20:44.496Z,6.18
2023-02-09T17:23:22.864Z,6.45
2023-02-09T17:25:55.235Z,6.38
2023-02-09T17:28:27.251Z,6.35
2023-02-09T17:30:59.325Z,6.70
2023-02-09T17:33:36.178Z,6.72
2023-02-09T17:36:25.122Z,8.82
2023-02-09T17:38:52.909Z,9.82
2023-02-09T17:41:20.620Z,9.23
2023-02-09T17:43:49.792Z,9.00
2023-02-09T17:46:19.305Z,10.45
2023-02-09T17:48:48.092Z,15.90
2023-02-09T17:51:31.233Z,17.08
2023-02-09T17:53:58.880Z,15.57
2023-02-09T17:56:26.280Z,14.48
2023-02-09T17:58:53.953Z,14.52
2023-02-09T18:01:29.446Z,13.93
2023-02-09T18:03:58.998Z,23.48
2023-02-09T18:06:36.496Z,32.47
2023-02-09T18:09:09.243Z,33.22
2023-02-09T18:11:45.857Z,34.78
2023-02-09T18:14:17.258Z,42.13
2023-02-09T18:16:44.624Z,35.35
2023-02-09T18:19:12.880Z,27.80
2023-02-09T18:22:07.094Z,26.38
2023-02-09T18:24:35.296Z,26.50
2023-02-09T18:27:03.068Z,25.10
2023-02-09T18:29:30.424Z,24.45
2023-02-09T18:31:59.015Z,20.63
2023-02-09T18:34:27.519Z,17.05
2023-02-09T18:36:55.030Z,16.65
2023-02-09T18:39:22.303Z,15.88
2023-02-09T18:41:54.699Z,10.18
2023-02-09T18:44:29.495Z,10.13
2023-02-09T18:46:58.047Z,13.25
2023-02-09T18:49:25.256Z,21.73
2023-02-09T18:51:52.802Z,25.23
2023-02-09T18:54:20.138Z,20.90
2023-02-09T18:56:47.697Z,20.23
2023-02-09T18:59:18.049Z,29.33
2023-02-09T19:01:46.722Z,27.38
2023-02-09T19:04:14.553Z,18.65
2023-02-09T19:06:41.936Z,18.15
2023-02-09T19:09:09.621Z,15.85
2023-02-09T19:11:36.937Z,13.65
2023-02-09T19:14:22.526Z,13.23
2023-02-09T19:16:50.214Z,12.43
2023-02-09T19:19:19.486Z,15.98
2023-02-09T19:21:47.885Z,16.10
2023-02-09T19:24:15.756Z,14.57
2023-02-09T19:26:42.903Z,14.32
2023-02-09T19:29:10.587Z,14.35
2023-02-09T19:31:37.909Z,12.40
2023-02-09T19:34:05.296Z,12.88
2023-02-09T19:36:34.572Z,16.65
2023-02-09T19:39:02.906Z,15.90
2023-02-09T19:41:30.650Z,13.60
2023-02-09T19:43:58.740Z,13.90
2023-02-09T19:46:26.427Z,13.82
2023-02-09T19:48:54.328Z,15.38
2023-02-09T19:51:22.815Z,16.27
2023-02-09T19:53:50.872Z,17.90
2023-02-09T19:56:21.105Z,18.50
2023-02-09T19:58:48.347Z,17.67
2023-02-09T20:01:16.518Z,17.00
2023-02-09T20:03:43.764Z,17.92
2023-02-09T20:06:14.471Z,16.67
2023-02-09T20:08:42.569Z,17.17
2023-02-09T20:11:16.846Z,16.88
2023-02-09T20:13:44.192Z,17.45
2023-02-09T20:16:14.725Z,17.10
2023-02-09T20:18:43.686Z,17.13
2023-02-09T20:21:11.213Z,17.52
2023-02-09T20:23:39.012Z,18.88
2023-02-09T20:26:24.772Z,24.05
2023-02-09T20:28:52.538Z,22.48
2023-02-09T20:31:22.084Z,21.42
2023-02-09T20:33:49.861Z,17.77
2023-02-09T20:36:18.891Z,17.40
2023-02-09T20:38:47.664Z,17.00
2023-02-09T20:41:18.071Z,17.60
2023-02-09T20:44:04.036Z,17.02
2023-02-09T20:46:52.983Z,15.43
2023-02-09T20:49:21.002Z,15.52
2023-02-09T20:51:48.634Z,16.92
2023-02-09T20:54:16.164Z,18.45
2023-02-09T20:56:44.191Z,19.20
2023-02-09T20:59:13.524Z,20.23
2023-02-09T21:01:42.026Z,20.52
2023-02-09T21:04:09.602Z,20.73
2023-02-09T21:06:38.316Z,19.73
2023-02-09T21:09:07.187Z,20.58
2023-02-09T21:11:37.604Z,23.17
2023-02-09T21:14:05.172Z,22.02
2023-02-09T21:16:33.097Z,27.67
2023-02-09T21:19:00.789Z,24.42
2023-02-09T21:21:28.167Z,17.08
2023-02-09T21:23:55.676Z,15.07
2023-02-09T21:26:24.650Z,14.35
2023-02-09T21:28:56.920Z,14.55
2023-02-09T21:31:28.182Z,15.55
2023-02-09T21:33:55.454Z,15.65
2023-02-09T21:36:22.970Z,14.52
2023-02-09T21:38:53.031Z,14.45
2023-02-09T21:41:41.172Z,14.60
2023-02-09T21:44:15.908Z,17.27
2023-02-09T21:46:43.248Z,16.90
2023-02-09T21:49:12.872Z,15.75
2023-02-09T21:51:41.778Z,15.23
2023-02-09T21:54:13.614Z,13.90
2023-02-09T21:56:41.353Z,15.10
2023-02-09T21:59:09.317Z,14.43
2023-02-09T22:01:36.740Z,15.45
2023-02-09T22:04:05.201Z,16.30
2023-02-09T22:06:32.580Z,16.42
2023-02-09T22:09:03.145Z,16.67
2023-02-09T22:11:30.663Z,17.70
2023-02-09T22:13:58.054Z,17.77
2023-02-09T22:16:25.999Z,18.63
2023-02-09T22:18:53.584Z,20.15
2023-02-09T22:21:21.493Z,20.30
2023-02-09T22:23:55.473Z,19.05
2023-02-09T22:26:23.394Z,17.98
2023-02-09T22:28:50.718Z,15.55
2023-02-09T22:31:20.075Z,14.52
2023-02-09T22:33:47.830Z,16.45
2023-02-09T22:36:17.568Z,17.75
2023-02-09T22:38:45.750Z,32.28
2023-02-09T22:41:22.203Z,34.83
2023-02-09T22:43:58.472Z,29.27
2023-02-09T22:46:37.392Z,20.52
2023-02-09T22:49:07.457Z,19.77
2023-02-09T22:51:36.220Z,21.42
2023-02-09T22:54:05.640Z,18.52
2023-02-09T22:56:33.649Z,15.80
2023-02-09T22:59:01.554Z,14.77
2023-02-09T23:01:29.748Z,12.88
2023-02-09T23:03:58.465Z,13.35
2023-02-09T23:06:27.979Z,12.27
2023-02-09T23:08:57.820Z,11.77
2023-02-09T23:11:25.655Z,10.23
2023-02-09T23:14:08.561Z,10.65
2023-02-09T23:16:38.096Z,9.13
2023-02-09T23:19:07.520Z,8.75
2023-02-09T23:21:38.092Z,9.65
2023-02-09T23:24:06.072Z,10.45
2023-02-09T23:26:34.188Z,13.20
2023-02-09T23:29:04.322Z,16.92
2023-02-09T23:31:32.036Z,23.60
2023-02-09T23:33:59.438Z,23.58
2023-02-09T23:36:31.705Z,19.73
2023-02-09T23:39:05.633Z,14.93
2023-02-09T23:41:34.109Z,12.32
2023-02-09T23:44:02.361Z,12.27
2023-02-09T23:46:29.836Z,13.45
2023-02-09T23:49:00.757Z,13.25
2023-02-09T23:51:31.348Z,14.38
2023-02-09T23:54:01.773Z,12.85
2023-02-09T23:56:32.537Z,13.90
2023-02-09T23:58:59.944Z,12.18
